Annis, Idaho
Current Conditions -  °F | °C
As of 12:53 PM on Thursday 23 Oct 2014 (Local Time) from KRXE Reporting Station
Overcast Overcast  
Wind Chill: 53°   Ceiling: 10000
Heat Index: 53°   Visibility: 10mi
Dew Point: 31°   Wind: 3mph
Humidity: 43%   Direction: 210°SSW
Pressure: 30.13"   Gusts: NA
Location:  43.6749°N, 111.89°W
Report Text: KRXE 231853Z AUTO 21003KT 10SM OVC100 12/M01 A3013 RMK AO2 SLP201 T01171006
Loading
Personal Weather Stations






























Interactive Weather Map
Tropical Storm Tracking
New forecast layout! Learn more

10-Day Weather Forecast

Advertisements
Track Severe Weather on mobile